createdAt,value
2022-10-11T00:00:21.797Z,-128.00
2022-10-11T00:03:28.474Z,-128.00
2022-10-11T00:06:15.460Z,-128.00
2022-10-11T00:09:02.547Z,-128.00
2022-10-11T00:11:49.423Z,-128.00
2022-10-11T00:14:36.804Z,-128.00
2022-10-11T00:17:23.957Z,-128.00
2022-10-11T00:20:11.622Z,-128.00
2022-10-11T00:22:58.356Z,-128.00
2022-10-11T00:25:45.120Z,-128.00
2022-10-11T00:28:32.425Z,-128.00
2022-10-11T00:31:19.827Z,-128.00
2022-10-11T00:34:06.864Z,-128.00
2022-10-11T00:36:54.579Z,-128.00
2022-10-11T00:39:41.680Z,-128.00
2022-10-11T00:42:29.063Z,-128.00
2022-10-11T00:45:28.350Z,-128.00
2022-10-11T00:48:22.960Z,-128.00
2022-10-11T00:51:48.795Z,-128.00
2022-10-11T00:54:40.017Z,-128.00
2022-10-11T00:57:29.818Z,-128.00
2022-10-11T02:06:13.758Z,10.33
2022-10-11T02:09:15.535Z,10.22
2022-10-11T02:12:12.289Z,10.14
2022-10-11T02:15:09.403Z,10.09
2022-10-11T02:18:06.731Z,10.05
2022-10-11T02:20:55.486Z,10.04
2022-10-11T02:24:13.872Z,10.01
2022-10-11T02:27:06.548Z,10.00
2022-10-11T02:30:04.470Z,9.95
2022-10-11T02:34:52.816Z,9.95
2022-10-11T02:38:01.520Z,9.96
2022-10-11T02:41:29.941Z,9.98
2022-10-11T02:44:32.067Z,10.04
2022-10-11T02:47:19.210Z,10.12
2022-10-11T02:50:12.442Z,10.19
2022-10-11T02:53:04.840Z,10.23
2022-10-11T02:55:57.043Z,10.27
2022-10-11T02:58:48.892Z,10.31
2022-10-11T03:01:41.098Z,10.35
2022-10-11T03:04:32.761Z,10.38
2022-10-11T03:07:24.756Z,10.40
2022-10-11T03:10:16.902Z,10.41
2022-10-11T03:13:17.290Z,10.41
2022-10-11T03:16:10.555Z,10.41
2022-10-11T03:19:02.583Z,10.40
2022-10-11T03:21:54.007Z,10.35
2022-10-11T03:24:45.972Z,10.34
2022-10-11T03:27:37.866Z,10.28
2022-10-11T03:30:29.586Z,10.21
2022-10-11T03:34:53.288Z,10.19
2022-10-11T03:37:46.243Z,10.16
2022-10-11T03:40:43.205Z,10.19
2022-10-11T03:43:35.113Z,10.20
2022-10-11T03:49:03.214Z,10.24
2022-10-11T03:51:51.486Z,10.26
2022-10-11T03:54:45.138Z,10.32
2022-10-11T03:57:36.955Z,10.35
2022-10-11T04:00:28.498Z,10.38
2022-10-11T04:03:20.342Z,10.43
2022-10-11T04:06:12.701Z,10.48
2022-10-11T04:09:05.100Z,10.52
2022-10-11T04:11:57.383Z,10.55
2022-10-11T04:14:49.344Z,10.60
2022-10-11T04:17:41.826Z,10.66
2022-10-11T04:20:33.648Z,10.70
2022-10-11T04:23:25.685Z,10.79
2022-10-11T04:26:12.562Z,10.86
2022-10-11T04:29:05.792Z,10.89
2022-10-11T04:31:57.276Z,10.91
2022-10-11T04:34:49.134Z,10.95
2022-10-11T04:37:35.646Z,11.00
2022-10-11T04:40:27.476Z,11.02
2022-10-11T04:43:19.498Z,11.06
2022-10-11T04:46:11.755Z,11.05
2022-10-11T04:49:03.642Z,11.07
2022-10-11T04:51:55.537Z,11.09
2022-10-11T04:56:15.103Z,11.07
2022-10-11T04:59:02.366Z,11.04
2022-10-11T05:01:53.969Z,11.01
2022-10-11T05:04:46.402Z,10.94
2022-10-11T05:07:32.916Z,10.90
2022-10-11T05:10:20.212Z,10.86
2022-10-11T05:13:06.830Z,10.85
2022-10-11T05:15:55.966Z,10.83
2022-10-11T05:18:43.060Z,10.81
2022-10-11T05:21:30.616Z,10.81
2022-10-11T05:24:27.393Z,10.82
2022-10-11T05:27:14.408Z,10.82
2022-10-11T05:43:02.475Z,11.34
2022-10-11T05:45:49.633Z,11.45
2022-10-11T05:48:38.213Z,11.45
2022-10-11T05:51:24.878Z,11.41
2022-10-11T05:54:11.752Z,11.39
2022-10-11T05:56:59.841Z,11.38
2022-10-11T05:59:46.613Z,11.34
2022-10-11T06:02:34.363Z,11.32
2022-10-11T06:05:21.511Z,11.32
2022-10-11T06:08:10.845Z,11.32
2022-10-11T06:10:58.549Z,11.30
2022-10-11T06:13:45.765Z,11.21
2022-10-11T06:16:32.577Z,11.18
2022-10-11T06:19:21.747Z,11.15
2022-10-11T06:22:12.335Z,11.17
2022-10-11T06:24:59.491Z,11.16
2022-10-11T06:27:46.280Z,11.20
2022-10-11T06:30:33.405Z,11.17
2022-10-11T06:33:20.628Z,11.15
2022-10-11T06:36:14.557Z,11.17
2022-10-11T06:39:01.704Z,11.22
2022-10-11T06:41:49.500Z,11.25
2022-10-11T06:44:39.824Z,11.28
2022-10-11T06:47:26.879Z,11.28
2022-10-11T06:50:13.978Z,11.33
2022-10-11T06:53:00.809Z,11.42
2022-10-11T06:55:47.729Z,11.50
2022-10-11T06:58:34.750Z,11.54
2022-10-11T07:01:23.998Z,11.58
2022-10-11T07:04:11.297Z,11.67
2022-10-11T07:06:58.171Z,11.80
2022-10-11T07:09:45.105Z,11.94
2022-10-11T07:12:32.070Z,12.11
2022-10-11T07:15:19.458Z,12.22
2022-10-11T07:18:07.393Z,12.31
2022-10-11T07:20:54.203Z,12.32
2022-10-11T07:23:41.516Z,12.46
2022-10-11T07:26:38.496Z,12.62
2022-10-11T07:29:30.609Z,12.99
2022-10-11T07:32:22.226Z,13.32
2022-10-11T07:35:13.682Z,13.65
2022-10-11T07:38:06.639Z,14.00
2022-10-11T07:40:57.970Z,14.39
2022-10-11T07:43:51.030Z,14.42
2022-10-11T07:46:42.650Z,14.28
2022-10-11T07:49:34.300Z,14.34
2022-10-11T07:52:25.640Z,14.39
2022-10-11T07:55:17.225Z,14.51
2022-10-11T07:58:10.035Z,14.60
2022-10-11T08:01:01.558Z,14.66
2022-10-11T08:03:53.354Z,14.99
2022-10-11T08:06:44.286Z,15.32
2022-10-11T08:11:08.411Z,15.96
2022-10-11T08:13:54.939Z,16.53
2022-10-11T08:16:47.198Z,16.99
2022-10-11T08:19:34.286Z,17.21
2022-10-11T08:22:28.084Z,17.15
2022-10-11T08:25:20.042Z,17.10
2022-10-11T08:28:18.177Z,16.94
2022-10-11T08:31:13.263Z,16.55
2022-10-11T08:34:05.440Z,16.30
2022-10-11T08:38:21.324Z,15.98
2022-10-11T08:41:25.880Z,15.73
2022-10-11T08:45:05.412Z,15.51
2022-10-11T08:47:49.101Z,15.38
2022-10-11T08:50:41.213Z,15.25
2022-10-11T08:55:28.821Z,15.09
2022-10-11T08:58:25.511Z,14.96
2022-10-11T09:01:20.887Z,14.91
2022-10-11T09:04:17.343Z,14.81
2022-10-11T09:09:19.134Z,14.78
2022-10-11T09:13:35.804Z,14.74
2022-10-11T09:16:54.257Z,14.75
2022-10-11T09:20:09.634Z,14.76
2022-10-11T09:23:11.750Z,14.83
2022-10-11T09:26:29.889Z,14.89
2022-10-11T09:29:47.824Z,14.85
2022-10-11T09:32:42.626Z,14.77
2022-10-11T09:35:32.510Z,14.66
2022-10-11T09:38:55.613Z,14.59
2022-10-11T09:41:59.834Z,14.61
2022-10-11T09:44:52.579Z,14.54
2022-10-11T09:47:44.574Z,14.45
2022-10-11T09:50:36.820Z,14.33
2022-10-11T09:53:55.931Z,14.25
2022-10-11T09:56:48.428Z,14.24
2022-10-11T09:59:40.225Z,14.21
2022-10-11T10:02:52.137Z,14.18
2022-10-11T10:05:44.156Z,14.23
2022-10-11T10:08:30.727Z,14.30
2022-10-11T10:11:22.719Z,14.28
2022-10-11T10:14:24.231Z,14.40
2022-10-11T10:17:17.779Z,14.53
2022-10-11T10:20:24.304Z,14.60
2022-10-11T10:23:43.292Z,14.66
2022-10-11T10:26:35.317Z,14.71
2022-10-11T10:31:55.360Z,14.63
2022-10-11T10:35:27.457Z,14.59
2022-10-11T10:38:26.946Z,14.63
2022-10-11T10:41:19.754Z,14.66
2022-10-11T10:44:11.676Z,14.65
2022-10-11T10:47:15.648Z,14.65
2022-10-11T10:50:17.286Z,14.70
2022-10-11T10:53:26.399Z,14.73
2022-10-11T10:56:27.811Z,14.70
2022-10-11T10:59:29.391Z,14.71
2022-10-11T11:02:40.335Z,14.63
2022-10-11T11:05:40.160Z,14.63
2022-10-11T11:09:05.402Z,14.53
2022-10-11T11:12:17.193Z,14.46
2022-10-11T11:15:37.909Z,14.56
2022-10-11T11:18:58.136Z,14.66
2022-10-11T11:22:13.976Z,14.75
2022-10-11T11:26:44.706Z,14.79
2022-10-11T11:29:56.016Z,14.86
2022-10-11T11:32:57.288Z,14.96
2022-10-11T11:35:53.796Z,15.14
2022-10-11T11:40:39.752Z,15.32
2022-10-11T11:43:37.192Z,15.26
2022-10-11T11:46:34.187Z,15.28
2022-10-11T11:52:45.161Z,15.39
2022-10-11T11:56:08.006Z,15.41
2022-10-11T11:59:23.729Z,15.45
2022-10-11T12:02:25.499Z,15.45
2022-10-11T12:05:21.725Z,15.44
2022-10-11T12:08:28.256Z,15.52
2022-10-11T12:11:25.468Z,15.59
2022-10-11T12:14:40.529Z,15.65
2022-10-11T12:17:33.391Z,15.68
2022-10-11T12:20:41.223Z,15.72
2022-10-11T12:23:43.898Z,15.68
2022-10-11T12:26:54.390Z,15.61
2022-10-11T12:31:25.650Z,16.21
2022-10-11T12:34:33.309Z,16.85
2022-10-11T12:37:46.283Z,17.49
2022-10-11T12:40:43.369Z,17.90
2022-10-11T12:43:33.314Z,18.27
2022-10-11T12:48:21.883Z,18.79
2022-10-11T12:51:41.733Z,19.14
2022-10-11T12:55:13.752Z,19.51
2022-10-11T12:58:19.714Z,19.48
2022-10-11T13:01:17.811Z,19.61
2022-10-11T13:04:11.865Z,19.90
2022-10-11T13:07:07.929Z,20.13
2022-10-11T13:09:55.335Z,20.35
2022-10-11T13:12:46.644Z,20.41
2022-10-11T13:15:43.564Z,20.54
2022-10-11T13:18:35.696Z,20.51
2022-10-11T13:21:39.560Z,20.65
2022-10-11T13:24:39.001Z,20.71
2022-10-11T13:28:55.464Z,20.83
2022-10-11T13:31:48.646Z,20.83
2022-10-11T13:34:41.802Z,20.88
2022-10-11T13:37:46.396Z,20.95
2022-10-11T13:43:34.376Z,20.88
2022-10-11T13:46:27.790Z,21.01
2022-10-11T13:49:29.029Z,21.08
2022-10-11T13:52:17.200Z,21.01
2022-10-11T13:55:11.042Z,21.03
2022-10-11T13:58:09.660Z,20.96
2022-10-11T14:01:26.690Z,20.64
2022-10-11T14:04:17.560Z,20.48
2022-10-11T14:07:03.902Z,20.50
2022-10-11T14:09:55.279Z,20.37
2022-10-11T14:12:57.536Z,20.23
2022-10-11T14:16:04.245Z,20.15
2022-10-11T14:19:02.555Z,20.01
2022-10-11T14:21:57.407Z,19.79
2022-10-11T14:24:49.222Z,19.56
2022-10-11T14:27:41.843Z,19.41
2022-10-11T14:30:31.051Z,19.24
2022-10-11T14:33:21.821Z,19.11
2022-10-11T14:36:07.936Z,18.91
2022-10-11T14:38:58.900Z,18.73
2022-10-11T14:41:50.520Z,18.62
2022-10-11T14:44:40.708Z,18.52
2022-10-11T14:47:26.581Z,18.33
2022-10-11T14:50:26.220Z,18.16
2022-10-11T14:53:17.266Z,18.08
2022-10-11T14:56:07.943Z,17.92
2022-10-11T14:58:58.960Z,17.71
2022-10-11T15:01:52.831Z,17.47
2022-10-11T15:04:38.345Z,17.06
2022-10-11T15:07:29.370Z,16.76
2022-10-11T15:10:22.514Z,16.44
2022-10-11T15:13:09.805Z,16.22
2022-10-11T15:15:55.979Z,15.99
2022-10-11T15:18:50.250Z,15.68
2022-10-11T15:21:41.901Z,15.43
2022-10-11T15:40:19.270Z,13.86
2022-10-11T15:43:05.959Z,13.65
2022-10-11T15:45:58.604Z,13.43
2022-10-11T15:48:45.806Z,13.21
2022-10-11T15:51:39.999Z,-15.21
2022-10-11T15:54:27.117Z,12.80
2022-10-11T15:57:14.029Z,12.60
2022-10-11T16:00:00.865Z,12.45
2022-10-11T16:02:48.139Z,12.28
2022-10-11T16:09:53.031Z,11.79
2022-10-11T16:12:40.227Z,11.58
2022-10-11T16:15:30.312Z,11.41
2022-10-11T16:18:22.519Z,11.28
2022-10-11T16:21:10.990Z,11.10
2022-10-11T16:23:57.967Z,10.92
2022-10-11T16:26:46.506Z,10.79
2022-10-11T16:29:33.796Z,10.60
2022-10-11T16:32:20.851Z,10.50
2022-10-11T16:35:09.080Z,10.36
2022-10-11T16:37:55.935Z,10.24
2022-10-11T16:40:43.521Z,10.15
2022-10-11T16:43:30.838Z,10.02
2022-10-11T16:46:19.104Z,9.88
2022-10-11T16:49:06.719Z,9.77
2022-10-11T16:51:56.572Z,9.65
2022-10-11T16:54:45.549Z,9.50
2022-10-11T16:57:33.973Z,9.38
2022-10-11T17:00:20.887Z,9.26
2022-10-11T17:03:09.442Z,9.17
2022-10-11T17:05:56.297Z,9.09
2022-10-11T17:08:43.380Z,8.99
2022-10-11T17:11:31.204Z,8.85
2022-10-11T17:14:18.907Z,8.74
2022-10-11T17:17:06.833Z,8.65
2022-10-11T17:19:53.931Z,8.58
2022-10-11T17:22:41.878Z,8.50
2022-10-11T17:25:29.893Z,8.40
2022-10-11T17:28:16.960Z,8.30
2022-10-11T17:31:05.854Z,8.17
2022-10-11T17:33:56.425Z,8.08
2022-10-11T17:36:43.927Z,7.96
2022-10-11T17:39:31.047Z,7.88
2022-10-11T17:42:17.585Z,7.79
2022-10-11T17:45:04.745Z,7.68
2022-10-11T17:47:51.334Z,7.60
2022-10-11T17:50:41.827Z,7.48
2022-10-11T17:53:30.005Z,7.35
2022-10-11T17:56:25.340Z,7.27
2022-10-11T17:59:16.854Z,7.21
2022-10-11T18:02:06.046Z,7.16
2022-10-11T18:04:52.937Z,7.08
2022-10-11T18:07:39.826Z,7.01
2022-10-11T18:10:27.529Z,6.95
2022-10-11T18:13:15.390Z,6.87
2022-10-11T18:16:02.472Z,6.77
2022-10-11T18:18:49.573Z,6.72
2022-10-11T18:21:37.914Z,6.66
2022-10-11T18:24:24.725Z,6.61
2022-10-11T18:27:12.801Z,6.56
2022-10-11T18:29:59.500Z,6.48
2022-10-11T18:32:47.239Z,6.43
2022-10-11T18:35:34.123Z,6.36
2022-10-11T18:38:20.917Z,6.32
2022-10-11T18:41:09.938Z,6.27
2022-10-11T18:44:00.146Z,6.18
2022-10-11T18:46:48.492Z,5.99
2022-10-11T18:49:39.016Z,5.89
2022-10-11T18:52:25.565Z,5.75
2022-10-11T18:55:12.790Z,5.66
2022-10-11T18:57:59.733Z,5.63
2022-10-11T19:00:46.859Z,5.65
2022-10-11T19:03:35.888Z,5.63
2022-10-11T19:06:25.816Z,5.60
2022-10-11T19:09:17.885Z,5.57
2022-10-11T19:12:05.910Z,5.52
2022-10-11T19:14:54.917Z,5.43
2022-10-11T19:17:42.264Z,5.37
2022-10-11T19:20:28.969Z,5.28
2022-10-11T19:23:16.183Z,5.12
2022-10-11T19:26:05.115Z,5.07
2022-10-11T19:29:00.795Z,5.10
2022-10-11T19:31:53.941Z,5.09
2022-10-11T19:34:40.914Z,5.06
2022-10-11T19:37:28.351Z,4.97
2022-10-11T19:40:15.336Z,4.94
2022-10-11T19:43:02.553Z,4.88
2022-10-11T19:45:49.482Z,4.85
2022-10-11T19:48:38.681Z,4.80
2022-10-11T19:51:27.470Z,4.74
2022-10-11T19:54:15.687Z,4.74
2022-10-11T19:57:02.706Z,4.71
2022-10-11T19:59:50.488Z,4.53
2022-10-11T20:02:37.348Z,4.52
2022-10-11T20:05:25.140Z,4.44
2022-10-11T20:08:11.981Z,4.41
2022-10-11T20:10:59.794Z,4.40
2022-10-11T20:13:46.693Z,4.40
2022-10-11T20:16:34.509Z,4.38
2022-10-11T20:19:26.276Z,4.40
2022-10-11T20:22:17.000Z,4.36
2022-10-11T20:25:03.858Z,4.34
2022-10-11T20:27:52.223Z,4.30
2022-10-11T20:30:43.383Z,4.17
2022-10-11T20:33:32.291Z,4.11
2022-10-11T20:36:21.834Z,4.09
2022-10-11T20:39:10.003Z,4.07
2022-10-11T20:41:56.832Z,4.01
2022-10-11T20:44:44.790Z,3.99
2022-10-11T20:47:31.569Z,3.92
2022-10-11T20:50:22.921Z,3.92
2022-10-11T20:53:12.921Z,3.88
2022-10-11T20:56:04.185Z,3.88
2022-10-11T20:58:55.061Z,3.86
2022-10-11T21:01:42.853Z,3.87
2022-10-11T21:04:29.625Z,3.85
2022-10-11T21:07:17.020Z,3.81
2022-10-11T21:10:03.909Z,3.81
2022-10-11T21:12:52.524Z,3.76
2022-10-11T21:15:39.191Z,3.63
2022-10-11T21:18:26.414Z,3.57
2022-10-11T21:21:14.515Z,3.49
2022-10-11T21:24:02.726Z,3.47
2022-10-11T21:26:49.430Z,3.48
2022-10-11T21:29:36.827Z,3.44
2022-10-11T21:32:23.526Z,3.42
2022-10-11T21:35:10.645Z,3.38
2022-10-11T21:37:58.773Z,3.34
2022-10-11T21:40:46.674Z,3.32
2022-10-11T21:43:35.247Z,3.23
2022-10-11T21:46:41.669Z,3.21
2022-10-11T21:49:32.191Z,3.19
2022-10-11T21:52:19.127Z,3.20
2022-10-11T21:55:06.165Z,3.22
2022-10-11T21:57:52.991Z,3.22
2022-10-11T22:00:39.811Z,3.24
2022-10-11T22:03:27.264Z,3.24
2022-10-11T22:06:15.164Z,3.18
2022-10-11T22:09:03.880Z,3.15
2022-10-11T22:11:50.375Z,3.14
2022-10-11T22:14:37.264Z,3.19
2022-10-11T22:17:24.069Z,3.25
2022-10-11T22:20:11.075Z,3.28
2022-10-11T22:22:57.984Z,3.28
2022-10-11T22:25:45.373Z,3.27
2022-10-11T22:28:32.304Z,3.35
2022-10-11T22:31:20.893Z,3.39
2022-10-11T22:34:07.850Z,3.40
2022-10-11T22:36:54.811Z,3.38
2022-10-11T22:39:41.176Z,3.45
2022-10-11T22:42:29.653Z,3.54
2022-10-11T22:45:16.556Z,3.58
2022-10-11T22:48:04.248Z,3.62
2022-10-11T22:50:51.462Z,3.63
2022-10-11T22:53:38.960Z,3.56
2022-10-11T22:56:25.504Z,3.48
2022-10-11T22:59:12.528Z,3.38
2022-10-11T23:01:59.254Z,3.36
2022-10-11T23:04:46.297Z,3.36
2022-10-11T23:07:33.122Z,3.39
2022-10-11T23:10:20.338Z,3.42
2022-10-11T23:13:07.400Z,3.34
2022-10-11T23:15:54.390Z,3.26
2022-10-11T23:18:41.776Z,3.22
2022-10-11T23:21:29.391Z,3.24
2022-10-11T23:24:16.156Z,3.25
2022-10-11T23:27:03.086Z,3.30
2022-10-11T23:29:49.559Z,3.35
2022-10-11T23:32:42.795Z,3.40
2022-10-11T23:35:29.799Z,3.42
2022-10-11T23:38:16.882Z,3.43
2022-10-11T23:41:03.980Z,3.35
2022-10-11T23:43:51.161Z,3.30
2022-10-11T23:46:37.975Z,3.25
2022-10-11T23:49:25.075Z,3.25
2022-10-11T23:52:11.894Z,3.24
2022-10-11T23:54:58.913Z,3.32
2022-10-11T23:57:46.113Z,3.37
